createdAt,value
2018-07-20T00:01:43.662Z,101648.45
2018-07-20T00:04:12.651Z,101651.53
2018-07-20T00:06:41.654Z,101650.53
2018-07-20T00:09:10.786Z,101652.05
2018-07-20T00:11:39.730Z,101652.20
2018-07-20T00:14:08.650Z,101651.14
2018-07-20T00:16:37.629Z,101650.81
2018-07-20T00:19:06.654Z,101646.59
2018-07-20T00:21:35.630Z,101651.06
2018-07-20T00:24:04.570Z,101648.84
2018-07-20T00:26:33.584Z,101650.97
2018-07-20T00:29:02.541Z,101649.50
2018-07-20T00:31:31.474Z,101644.61
2018-07-20T00:34:01.187Z,101651.50
2018-07-20T00:36:30.190Z,101646.81
2018-07-20T00:38:59.192Z,101645.53
2018-07-20T00:41:28.174Z,101641.23
2018-07-20T00:43:57.730Z,101639.41
2018-07-20T00:46:26.652Z,101632.23
2018-07-20T00:48:55.562Z,101628.44
2018-07-20T00:51:24.544Z,101630.87
2018-07-20T00:53:53.578Z,101624.91
2018-07-20T00:56:22.551Z,101621.97
2018-07-20T00:58:51.658Z,101624.61
2018-07-20T01:01:20.887Z,101623.99
2018-07-20T01:03:50.580Z,101626.59
2018-07-20T01:06:19.551Z,101618.56
2018-07-20T01:08:48.449Z,101618.39
2018-07-20T01:11:17.434Z,101615.12
2018-07-20T01:13:46.324Z,101613.31
2018-07-20T01:16:15.990Z,101613.56
2018-07-20T01:18:44.978Z,101612.78
2018-07-20T01:21:13.914Z,101608.70
2018-07-20T01:23:42.831Z,101607.60
2018-07-20T01:26:11.792Z,101609.92
2018-07-20T01:28:40.703Z,101604.42
2018-07-20T01:31:09.641Z,101601.56
2018-07-20T01:33:38.550Z,101602.64
2018-07-20T01:36:07.474Z,101606.67
2018-07-20T01:38:36.450Z,101609.06
2018-07-20T01:41:05.572Z,101611.92
2018-07-20T01:43:34.522Z,101605.66
2018-07-20T01:46:03.611Z,101598.12
2018-07-20T01:48:32.722Z,101604.42
2018-07-20T01:51:01.857Z,101600.34
2018-07-20T01:53:30.788Z,101595.41
2018-07-20T01:55:59.784Z,101590.63
2018-07-20T01:58:28.683Z,101589.88
2018-07-20T02:00:58.082Z,101579.92
2018-07-20T02:03:27.014Z,101572.73
2018-07-20T02:05:58.632Z,101573.70
2018-07-20T02:08:27.542Z,101572.91
2018-07-20T02:11:00.934Z,101575.05
2018-07-20T02:13:29.914Z,101577.38
2018-07-20T02:15:59.266Z,101578.73
2018-07-20T02:18:28.185Z,101576.41
2018-07-20T02:20:57.195Z,101576.98
2018-07-20T02:23:26.090Z,101575.23
2018-07-20T02:25:55.027Z,101574.06
2018-07-20T02:28:23.995Z,101574.48
2018-07-20T02:30:52.955Z,101567.20
2018-07-20T02:33:21.897Z,101573.66
2018-07-20T02:35:50.822Z,101575.38
2018-07-20T02:38:20.152Z,101573.42
2018-07-20T02:40:49.576Z,101578.48
2018-07-20T02:43:18.590Z,101577.59
2018-07-20T02:45:53.001Z,101578.45
2018-07-20T02:48:21.960Z,101573.66
2018-07-20T02:50:50.912Z,101575.81
2018-07-20T02:53:19.870Z,101575.34
2018-07-20T02:55:48.810Z,101576.88
2018-07-20T02:58:18.368Z,101576.91
2018-07-20T03:00:47.379Z,101581.73
2018-07-20T03:03:16.317Z,101582.22
2018-07-20T03:05:45.445Z,101582.11
2018-07-20T03:08:14.383Z,101576.73
2018-07-20T03:10:43.305Z,101577.56
2018-07-20T03:13:12.215Z,101571.95
2018-07-20T03:15:41.151Z,101574.88
2018-07-20T03:18:10.762Z,101570.23
2018-07-20T03:20:39.706Z,101572.77
2018-07-20T03:23:09.725Z,101563.62
2018-07-20T03:25:38.618Z,101561.02
2018-07-20T03:28:07.561Z,101561.68
2018-07-20T03:30:36.566Z,101563.64
2018-07-20T03:33:05.510Z,101559.83
2018-07-20T03:35:34.717Z,101560.33
2018-07-20T03:38:03.686Z,101558.30
2018-07-20T03:40:32.917Z,101553.55
2018-07-20T03:43:02.073Z,101547.73
2018-07-20T03:45:31.971Z,101548.98
2018-07-20T03:48:02.049Z,101546.33
2018-07-20T03:50:31.117Z,101543.50
2018-07-20T03:53:00.191Z,101542.50
2018-07-20T03:55:29.183Z,101536.19
2018-07-20T03:57:58.201Z,101539.50
2018-07-20T04:00:27.183Z,101539.03
2018-07-20T04:02:56.087Z,101540.49
2018-07-20T04:05:24.983Z,101539.50
2018-07-20T04:07:53.893Z,101542.50
2018-07-20T04:10:22.840Z,101531.21
2018-07-20T04:12:52.239Z,101541.19
2018-07-20T04:15:21.174Z,101535.77
2018-07-20T04:17:50.102Z,101537.16
2018-07-20T04:20:19.035Z,101536.02
2018-07-20T04:22:47.976Z,101534.52
2018-07-20T04:25:16.930Z,101528.91
2018-07-20T04:27:46.385Z,101530.76
2018-07-20T04:30:15.931Z,101528.89
2018-07-20T04:32:50.331Z,101532.46
2018-07-20T04:35:19.309Z,101525.19
2018-07-20T04:37:48.245Z,101529.30
2018-07-20T04:40:17.221Z,101522.33
2018-07-20T04:42:48.167Z,101519.17
2018-07-20T04:45:17.157Z,101517.86
2018-07-20T04:47:46.121Z,101524.97
2018-07-20T04:50:15.054Z,101519.61
2018-07-20T04:52:44.079Z,101519.82
2018-07-20T04:55:13.135Z,101518.10
2018-07-20T04:57:42.051Z,101518.10
2018-07-20T05:00:11.087Z,101514.38
2018-07-20T05:02:39.977Z,101518.48
2018-07-20T05:05:08.909Z,101521.45
2018-07-20T05:07:38.316Z,101517.23
2018-07-20T05:10:07.331Z,101515.03
2018-07-20T05:12:36.339Z,101517.03
2018-07-20T05:15:05.355Z,101518.71
2018-07-20T05:17:34.815Z,101521.46
2018-07-20T05:20:03.805Z,101523.07
2018-07-20T05:22:32.739Z,101527.92
2018-07-20T05:25:01.740Z,101535.92
2018-07-20T05:27:30.711Z,101526.92
2018-07-20T05:29:59.635Z,101532.25
2018-07-20T05:32:28.593Z,101532.78
2018-07-20T05:34:57.517Z,101529.86
2018-07-20T05:37:26.597Z,101522.61
2018-07-20T05:39:55.607Z,101526.81
2018-07-20T05:42:24.559Z,101525.56
2018-07-20T05:44:54.107Z,101528.20
2018-07-20T05:47:23.101Z,101527.95
2018-07-20T05:49:52.085Z,101523.10
2018-07-20T05:52:21.018Z,101516.43
2018-07-20T05:54:49.962Z,101516.93
2018-07-20T05:57:18.921Z,101511.50
2018-07-20T05:59:47.923Z,101512.30
2018-07-20T06:02:17.111Z,101509.41
2018-07-20T06:04:46.497Z,101503.92
2018-07-20T06:07:15.518Z,101508.25
2018-07-20T06:09:44.421Z,101505.24
2018-07-20T06:12:13.459Z,101500.38
2018-07-20T06:14:42.371Z,101501.01
2018-07-20T06:17:11.389Z,101498.70
2018-07-20T06:19:40.384Z,101506.10
2018-07-20T06:22:09.327Z,101503.03
2018-07-20T06:24:38.241Z,101505.99
2018-07-20T06:27:07.173Z,101509.01
2018-07-20T06:29:36.198Z,101499.64
2018-07-20T06:32:05.101Z,101494.43
2018-07-20T06:34:34.055Z,101501.61
2018-07-20T06:37:03.421Z,101499.16
2018-07-20T06:39:32.467Z,101499.14
2018-07-20T06:42:01.390Z,101502.50
2018-07-20T06:44:30.363Z,101507.10
2018-07-20T06:46:59.275Z,101502.20
2018-07-20T06:49:28.239Z,101497.23
2018-07-20T06:51:57.211Z,101493.53
2018-07-20T06:54:26.161Z,101501.47
2018-07-20T06:56:55.201Z,101497.27
2018-07-20T06:59:24.925Z,101501.22
2018-07-20T07:01:53.915Z,101494.56
2018-07-20T07:04:22.893Z,101490.93
2018-07-20T07:06:51.847Z,101493.81
2018-07-20T07:09:21.806Z,101494.48
2018-07-20T07:11:50.679Z,101500.36
2018-07-20T07:14:19.583Z,101495.51
2018-07-20T07:16:48.483Z,101497.85
2018-07-20T07:19:17.419Z,101500.52
2018-07-20T07:21:47.308Z,101496.62
2018-07-20T07:24:16.254Z,101506.69
2018-07-20T07:26:45.217Z,101503.08
2018-07-20T07:29:14.289Z,101495.79
2018-07-20T07:31:48.817Z,101495.06
2018-07-20T07:34:17.785Z,101488.77
2018-07-20T07:36:46.739Z,101495.06
2018-07-20T07:39:15.695Z,101492.97
2018-07-20T07:41:44.717Z,101492.05
2018-07-20T07:44:13.611Z,101488.09
2018-07-20T07:46:43.091Z,101489.14
2018-07-20T07:49:12.539Z,101488.73
2018-07-20T07:51:41.507Z,101487.74
2018-07-20T07:54:10.419Z,101483.27
2018-07-20T07:56:39.348Z,101481.91
2018-07-20T07:59:08.359Z,101488.92
2018-07-20T08:01:37.327Z,101483.92
2018-07-20T08:04:06.605Z,101479.27
2018-07-20T08:06:35.647Z,101474.71
2018-07-20T08:09:08.643Z,101475.25
2018-07-20T08:11:38.196Z,101477.44
2018-07-20T08:14:07.273Z,101470.67
2018-07-20T08:16:36.430Z,101470.75
2018-07-20T08:19:05.626Z,101469.74
2018-07-20T08:21:35.048Z,101464.76
2018-07-20T08:24:04.001Z,101455.48
2018-07-20T08:26:33.052Z,101463.41
2018-07-20T08:29:02.012Z,101457.83
2018-07-20T08:31:31.135Z,101457.16
2018-07-20T08:34:00.094Z,101452.95
2018-07-20T08:36:29.105Z,101452.17
2018-07-20T08:38:58.085Z,101449.50
2018-07-20T08:41:27.052Z,101448.80
2018-07-20T08:43:56.059Z,101447.42
2018-07-20T08:46:25.069Z,101452.61
2018-07-20T08:48:54.036Z,101456.14
2018-07-20T08:51:23.008Z,101453.47
2018-07-20T08:53:52.027Z,101455.03
2018-07-20T08:56:21.887Z,101457.30
2018-07-20T08:58:50.888Z,101450.03
2018-07-20T09:01:19.812Z,101454.36
2018-07-20T09:03:48.768Z,101458.02
2018-07-20T09:06:17.718Z,101453.69
2018-07-20T09:08:46.679Z,101452.88
2018-07-20T09:11:15.676Z,101453.20
2018-07-20T09:13:44.820Z,101450.36
2018-07-20T09:16:13.611Z,101449.84
2018-07-20T09:18:42.569Z,101459.92
2018-07-20T09:21:11.556Z,101453.32
2018-07-20T09:23:40.528Z,101452.38
2018-07-20T09:26:09.536Z,101455.02
2018-07-20T09:28:38.499Z,101456.14
2018-07-20T09:31:07.569Z,101442.91
2018-07-20T09:33:36.528Z,101446.77
2018-07-20T09:36:05.596Z,101447.56
2018-07-20T09:38:34.692Z,101446.06
2018-07-20T09:41:03.698Z,101449.77
2018-07-20T09:43:32.676Z,101436.43
2018-07-20T09:46:01.763Z,101446.26
2018-07-20T09:48:30.648Z,101449.95
2018-07-20T09:50:59.588Z,101445.75
2018-07-20T09:53:28.485Z,101452.92
2018-07-20T09:55:57.529Z,101443.78
2018-07-20T09:58:26.520Z,101445.14
2018-07-20T10:00:55.442Z,101440.91
2018-07-20T10:03:24.400Z,101449.56
2018-07-20T10:05:53.926Z,101449.95
2018-07-20T10:08:22.900Z,101438.43
2018-07-20T10:10:52.567Z,101442.74
2018-07-20T10:13:22.337Z,101435.84
2018-07-20T10:15:51.297Z,101441.17
2018-07-20T10:18:21.239Z,101444.09
2018-07-20T10:20:50.194Z,101441.86
2018-07-20T10:23:19.157Z,101440.00
2018-07-20T10:25:48.159Z,101440.09
2018-07-20T10:28:17.068Z,101434.95
2018-07-20T10:30:46.618Z,101423.34
2018-07-20T10:33:15.508Z,101431.16
2018-07-20T10:35:44.480Z,101438.66
2018-07-20T10:38:13.424Z,101431.63
2018-07-20T10:40:42.349Z,101425.94
2018-07-20T10:43:11.283Z,101420.90
2018-07-20T10:45:40.241Z,101422.41
2018-07-20T10:48:10.188Z,101425.88
2018-07-20T10:50:39.168Z,101412.16
2018-07-20T10:53:08.089Z,101425.98
2018-07-20T10:55:37.021Z,101423.37
2018-07-20T10:58:06.079Z,101419.88
2018-07-20T11:00:35.070Z,101425.54
2018-07-20T11:03:04.174Z,101421.35
2018-07-20T11:05:33.122Z,101414.77
2018-07-20T11:08:03.084Z,101414.00
2018-07-20T11:10:32.073Z,101410.59
2018-07-20T11:13:01.001Z,101406.46
2018-07-20T11:15:30.025Z,101416.59
2018-07-20T11:17:58.986Z,101410.02
2018-07-20T11:20:28.011Z,101403.78
2018-07-20T11:22:56.894Z,101406.70
2018-07-20T11:25:25.823Z,101414.25
2018-07-20T11:27:54.881Z,101404.82
2018-07-20T11:30:24.492Z,101414.77
2018-07-20T11:32:53.528Z,101406.05
2018-07-20T11:35:22.468Z,101398.03
2018-07-20T11:37:51.448Z,101402.03
2018-07-20T11:40:20.448Z,101400.65
2018-07-20T11:42:49.444Z,101395.27
2018-07-20T11:45:18.425Z,101404.41
2018-07-20T11:47:47.484Z,101400.33
2018-07-20T11:50:16.453Z,101400.28
2018-07-20T11:52:45.394Z,101397.64
2018-07-20T11:55:14.352Z,101391.34
2018-07-20T11:57:43.346Z,101401.56
2018-07-20T12:00:12.445Z,101401.30
2018-07-20T12:02:41.374Z,101390.31
2018-07-20T12:05:10.296Z,101398.13
2018-07-20T12:07:40.804Z,101391.73
2018-07-20T12:10:09.755Z,101395.19
2018-07-20T12:12:38.808Z,101382.56
2018-07-20T12:15:07.858Z,101385.80
2018-07-20T12:17:36.938Z,101380.20
2018-07-20T12:20:05.878Z,101384.06
2018-07-20T12:22:35.867Z,101382.91
2018-07-20T12:25:05.012Z,101383.23
2018-07-20T12:27:33.974Z,101381.03
2018-07-20T12:30:03.007Z,101377.41
2018-07-20T12:32:31.916Z,101394.69
2018-07-20T12:35:00.912Z,101380.95
2018-07-20T12:37:29.937Z,101377.09
2018-07-20T12:39:58.972Z,101377.05
2018-07-20T12:42:27.995Z,101371.16
2018-07-20T12:44:57.004Z,101366.10
2018-07-20T12:47:25.934Z,101374.42
2018-07-20T12:49:54.996Z,101361.52
2018-07-20T12:52:23.959Z,101365.20
2018-07-20T12:54:52.915Z,101367.95
2018-07-20T12:57:21.872Z,101361.31
2018-07-20T12:59:50.855Z,101367.73
2018-07-20T13:02:19.954Z,101370.43
2018-07-20T13:04:48.928Z,101377.27
2018-07-20T13:07:17.889Z,101362.06
2018-07-20T13:09:47.629Z,101364.81
2018-07-20T13:12:16.700Z,101361.17
2018-07-20T13:14:45.661Z,101368.41
2018-07-20T13:17:14.650Z,101355.95
2018-07-20T13:19:43.594Z,101359.25
2018-07-20T13:22:12.584Z,101367.59
2018-07-20T13:24:41.527Z,101362.70
2018-07-20T13:27:10.586Z,101358.25
2018-07-20T13:29:40.298Z,101353.06
2018-07-20T13:32:09.271Z,101363.69
2018-07-20T13:34:38.228Z,101356.00
2018-07-20T13:37:07.200Z,101353.02
2018-07-20T13:39:36.213Z,101359.59
2018-07-20T13:42:05.366Z,101361.73
2018-07-20T13:44:34.326Z,101360.25
2018-07-20T13:47:03.309Z,101360.65
2018-07-20T13:49:32.274Z,101351.64
2018-07-20T13:52:01.302Z,101350.37
2018-07-20T13:54:30.232Z,101354.82
2018-07-20T13:56:59.200Z,101356.41
2018-07-20T13:59:28.147Z,101351.59
2018-07-20T14:01:57.342Z,101357.55
2018-07-20T14:04:26.352Z,101363.14
2018-07-20T14:06:55.569Z,101358.03
2018-07-20T14:09:24.773Z,101348.91
2018-07-20T14:11:53.741Z,101356.80
2018-07-20T14:14:22.646Z,101349.02
2018-07-20T14:16:51.714Z,101340.24
2018-07-20T14:19:21.302Z,101349.41
2018-07-20T14:21:56.068Z,101353.43
2018-07-20T14:24:30.700Z,101348.05
2018-07-20T14:26:59.671Z,101346.42
2018-07-20T14:29:28.643Z,101349.53
2018-07-20T14:31:57.720Z,101354.27
2018-07-20T14:34:26.650Z,101338.95
2018-07-20T14:36:55.680Z,101344.94
2018-07-20T14:39:24.720Z,101350.72
2018-07-20T14:41:53.948Z,101333.99
2018-07-20T14:44:22.970Z,101342.69
2018-07-20T14:46:51.953Z,101342.46
2018-07-20T14:49:20.919Z,101328.34
2018-07-20T14:51:49.865Z,101331.52
2018-07-20T14:54:18.834Z,101332.11
2018-07-20T14:56:47.840Z,101328.00
2018-07-20T14:59:16.868Z,101313.80
2018-07-20T15:01:45.881Z,101321.34
2018-07-20T15:04:15.015Z,101306.38
2018-07-20T15:06:44.830Z,101299.41
2018-07-20T15:09:13.864Z,101301.24
2018-07-20T15:11:42.808Z,101292.48
2018-07-20T15:14:11.821Z,101296.20
2018-07-20T15:16:40.868Z,101302.56
2018-07-20T15:19:09.838Z,101297.74
2018-07-20T15:21:38.788Z,101288.77
2018-07-20T15:24:07.760Z,101279.36
2018-07-20T15:26:36.731Z,101295.50
2018-07-20T15:29:05.776Z,101299.05
2018-07-20T15:31:34.733Z,101284.58
2018-07-20T15:34:03.862Z,101287.51
2018-07-20T15:36:32.859Z,101281.73
2018-07-20T15:39:01.832Z,101269.98
2018-07-20T15:41:30.804Z,101272.35
2018-07-20T15:43:59.831Z,101269.61
2018-07-20T15:46:28.879Z,101259.34
2018-07-20T15:48:58.561Z,101253.96
2018-07-20T15:51:55.487Z,101248.85
2018-07-20T15:53:56.535Z,101246.53
2018-07-20T15:56:25.599Z,101249.07
2018-07-20T15:58:54.619Z,101257.56
2018-07-20T16:01:23.601Z,101254.01
2018-07-20T16:03:52.596Z,101255.49
2018-07-20T16:06:21.689Z,101263.44
2018-07-20T16:08:50.591Z,101265.98
2018-07-20T16:11:25.266Z,101257.63
2018-07-20T16:13:54.260Z,101245.47
2018-07-20T16:16:23.247Z,101240.36
2018-07-20T16:18:52.277Z,101237.63
2018-07-20T16:21:21.305Z,101236.39
2018-07-20T16:23:50.277Z,101239.88
2018-07-20T16:26:19.365Z,101238.73
2018-07-20T16:28:48.235Z,101238.79
2018-07-20T16:31:17.233Z,101240.39
2018-07-20T16:33:46.155Z,101244.65
2018-07-20T16:36:15.171Z,101241.73
2018-07-20T16:38:45.021Z,101237.88
2018-07-20T16:41:14.056Z,101242.98
2018-07-20T18:18:03.957Z,101240.37
2018-07-20T18:20:32.980Z,101228.00
2018-07-20T18:23:01.939Z,101228.56
2018-07-20T18:25:31.112Z,101228.83
2018-07-20T18:28:00.138Z,101229.73
2018-07-20T18:30:29.083Z,101227.22
2018-07-20T18:32:58.024Z,101231.94
2018-07-20T18:35:27.031Z,101233.22
2018-07-20T18:37:55.966Z,101236.03
2018-07-20T18:40:25.953Z,101227.29
2018-07-20T18:42:54.945Z,101227.52
2018-07-20T18:45:23.940Z,101233.50
2018-07-20T18:48:00.380Z,101231.67
2018-07-20T18:50:29.451Z,101225.36
2018-07-20T18:52:59.255Z,101234.97
2018-07-20T18:55:28.139Z,101235.20
2018-07-20T18:57:57.092Z,101235.03
2018-07-20T19:00:25.993Z,101234.80
2018-07-20T19:02:55.090Z,101227.94
2018-07-20T19:05:24.433Z,101226.70
2018-07-20T19:07:53.339Z,101225.16
2018-07-20T19:10:22.793Z,101226.53
2018-07-20T19:12:51.789Z,101234.20
2018-07-20T19:15:20.825Z,101236.23
2018-07-20T19:17:49.697Z,101227.98
2018-07-20T19:20:18.653Z,101231.59
2018-07-20T19:22:54.405Z,101229.25
2018-07-20T19:25:28.876Z,101229.30
2018-07-20T19:27:57.816Z,101226.52
2018-07-20T19:30:26.748Z,101224.36
2018-07-20T19:32:55.655Z,101222.99
2018-07-20T19:35:25.077Z,101222.82
2018-07-20T19:37:54.183Z,101222.76
2018-07-20T19:40:23.188Z,101229.22
2018-07-20T19:42:52.112Z,101232.47
2018-07-20T19:45:21.011Z,101240.44
2018-07-20T19:47:50.195Z,101241.59
2018-07-20T19:50:19.202Z,101245.80
2018-07-20T19:52:48.151Z,101248.25
2018-07-20T19:55:17.092Z,101250.69
2018-07-20T19:57:46.015Z,101251.97
2018-07-20T20:00:15.025Z,101246.23
2018-07-20T20:02:47.476Z,101246.33
2018-07-20T20:05:16.567Z,101248.13
2018-07-20T20:07:45.539Z,101244.39
2018-07-20T20:10:14.409Z,101256.66
2018-07-20T20:12:43.365Z,101247.19
2018-07-20T20:15:12.350Z,101249.49
2018-07-20T20:17:41.211Z,101255.88
2018-07-20T20:20:12.256Z,101253.73
2018-07-20T20:22:41.521Z,101248.86
2018-07-20T20:25:10.530Z,101243.06
2018-07-20T20:27:39.544Z,101245.99
2018-07-20T20:30:08.530Z,101246.78
2018-07-20T20:32:39.197Z,101253.05
2018-07-20T20:35:08.178Z,101253.25
2018-07-20T20:37:37.119Z,101253.02
2018-07-20T20:40:07.283Z,101249.03
2018-07-20T20:42:36.268Z,101249.51
2018-07-20T20:45:06.295Z,101244.45
2018-07-20T20:47:35.238Z,101241.73
2018-07-20T20:50:04.913Z,101240.23
2018-07-20T20:52:34.715Z,101243.87
2018-07-20T20:55:03.943Z,101239.84
2018-07-20T20:57:32.885Z,101242.64
2018-07-20T21:00:01.886Z,101251.34
2018-07-20T21:02:30.881Z,101258.47
2018-07-20T21:04:59.809Z,101252.67
2018-07-20T21:07:29.732Z,101250.22
2018-07-20T21:09:58.646Z,101246.52
2018-07-20T21:12:27.629Z,101240.80
2018-07-20T21:14:56.596Z,101237.68
2018-07-20T21:17:25.580Z,101234.66
2018-07-20T21:19:54.616Z,101234.30
2018-07-20T21:22:23.659Z,101230.76
2018-07-20T21:24:52.651Z,101231.77
2018-07-20T21:27:21.599Z,101225.08
2018-07-20T21:29:51.309Z,101226.31
2018-07-20T21:32:20.274Z,101224.24
2018-07-20T21:34:49.249Z,101224.70
2018-07-20T21:37:18.202Z,101224.78
2018-07-20T21:39:47.207Z,101222.16
2018-07-20T21:42:16.139Z,101216.39
2018-07-20T21:44:45.182Z,101213.65
2018-07-20T21:47:14.123Z,101212.69
2018-07-20T21:49:43.063Z,101206.98
2018-07-20T21:52:12.012Z,101200.55
2018-07-20T21:54:40.983Z,101195.69
2018-07-20T21:57:09.920Z,101195.55
2018-07-20T21:59:38.899Z,101199.58
2018-07-20T22:02:07.838Z,101195.63
2018-07-20T22:04:37.020Z,101195.37
2018-07-20T22:07:05.987Z,101195.86
2018-07-20T22:09:34.961Z,101193.34
2018-07-20T22:12:03.932Z,101192.51
2018-07-20T22:14:32.936Z,101194.57
2018-07-20T22:17:01.884Z,101191.39
2018-07-20T22:19:30.859Z,101189.84
2018-07-20T22:21:59.905Z,101187.05
2018-07-20T22:24:28.863Z,101188.42
2018-07-20T22:26:57.771Z,101191.52
2018-07-20T22:29:26.790Z,101191.59
2018-07-20T22:31:55.742Z,101191.46
2018-07-20T22:34:24.650Z,101185.26
2018-07-20T22:36:53.667Z,101180.30
2018-07-20T22:39:22.576Z,101179.73
2018-07-20T22:41:51.597Z,101175.95
2018-07-20T22:44:20.562Z,101178.56
2018-07-20T22:46:49.653Z,101183.36
2018-07-20T22:49:18.634Z,101189.16
2018-07-20T22:51:47.696Z,101186.55
2018-07-20T22:54:16.778Z,101187.56
2018-07-20T22:56:45.820Z,101187.43
2018-07-20T22:59:14.772Z,101172.34
2018-07-20T23:01:43.727Z,101190.81
2018-07-20T23:04:12.657Z,101189.31
2018-07-20T23:06:47.090Z,101187.19
2018-07-20T23:09:16.020Z,101184.41
2018-07-20T23:11:44.966Z,101179.78
2018-07-20T23:14:13.896Z,101174.09
2018-07-20T23:16:42.870Z,101168.44
2018-07-20T23:19:11.771Z,101172.59
2018-07-20T23:21:40.732Z,101162.84
2018-07-20T23:24:09.682Z,101159.98
2018-07-20T23:26:38.596Z,101158.11
2018-07-20T23:29:08.469Z,101162.61
2018-07-20T23:31:37.412Z,101165.30
2018-07-20T23:34:06.716Z,101160.19
2018-07-20T23:36:35.711Z,101165.47
2018-07-20T23:39:06.274Z,101160.57
2018-07-20T23:41:35.440Z,101160.58
2018-07-20T23:44:04.360Z,101159.88
2018-07-20T23:46:33.299Z,101162.20
2018-07-20T23:49:02.636Z,101164.22
2018-07-20T23:51:31.688Z,101163.97
2018-07-20T23:54:00.634Z,101161.25
2018-07-20T23:56:29.596Z,101163.90
2018-07-20T23:58:58.534Z,101166.28
